Terminal Aerodrome Forecast
Issued by NWS

Home | Current Version | Previous Version | Text Only | Print | Product List | Glossary On
Versions: 1 2 3 4 5 6 7 8 9 10 11 12 13 14 15 16 17 18 19 20 21 22 23 24 25 26 27 28 29
000
FTUS41 KBUF 250520
TAFJHW
TAF
KJHW 250520Z 2506/2606 06004KT P6SM SCT250
     FM250800 VRB03KT 2SM BR SCT250
     FM250900 VRB03KT 1/2SM FG BKN002
     FM251300 14005KT P6SM SCT250
     FM251900 08005KT P6SM SCT050 SCT250
     FM260100 VRB03KT P6SM SCT250
      AMD LTD TO CLD VIS AND WIND=

USA.gov is the U.S. government's official web portal to all federal, state and local government web resources and services.